ABQ704 OPLA-OPSD
Flight info
| Callsign | ABQ704 |
|---|---|
| Flight time | N/A |
| Altitude | 36000 |
| Route | AKBER DCT MATIN DCT ISDUR DCT RN/N0453F350 DCT KAGLO J186 KAPMI J154 BUNGI DCT DELDA DCT BIREB DCT SD |
| Aircraft | A320/M-SDE3FGHIRWY/LB1 |
Departure
| Time | 2026-04-25 10:06 |
|---|---|
| Airport | Allama Iqbal International Airport (OPLA) |
Arrival
| Time | N/A |
|---|---|
| Airport | Skardu International Airport (OPSD) |
| Time | Latitude | Longitude | Altitude | Speed | Heading |
|---|---|---|---|---|---|
| 2026-04-25 09:47 | 31.52103 | 74.40948 | 725 ft | 0 kts | 90° |
| 2026-04-25 09:57 | 31.52103 | 74.40946 | 722 ft | 2 kts | 90° |
| 2026-04-25 09:57 | 31.52103 | 74.40917 | 721 ft | 4 kts | 93° |
| 2026-04-25 09:57 | 31.52105 | 74.40887 | 720 ft | 2 kts | 93° |
| 2026-04-25 09:58 | 31.52104 | 74.40862 | 720 ft | 4 kts | 58° |
| 2026-04-25 09:58 | 31.52085 | 74.40846 | 722 ft | 4 kts | 6° |
| 2026-04-25 09:58 | 31.52072 | 74.40845 | 721 ft | 0 kts | 359° |
| 2026-04-25 10:00 | 31.52073 | 74.40845 | 722 ft | 1 kts | 359° |
| 2026-04-25 10:00 | 31.52084 | 74.40845 | 725 ft | 3 kts | 359° |
| 2026-04-25 10:00 | 31.52108 | 74.40845 | 722 ft | 4 kts | 0° |
| 2026-04-25 10:01 | 31.52145 | 74.40845 | 723 ft | 6 kts | 0° |
| 2026-04-25 10:01 | 31.52194 | 74.40846 | 723 ft | 8 kts | 1° |
| 2026-04-25 10:01 | 31.52254 | 74.40847 | 723 ft | 10 kts | 360° |
| 2026-04-25 10:01 | 31.52326 | 74.40846 | 723 ft | 11 kts | 360° |
| 2026-04-25 10:02 | 31.52391 | 74.40828 | 723 ft | 10 kts | 318° |
| 2026-04-25 10:02 | 31.52405 | 74.40746 | 722 ft | 12 kts | 271° |
| 2026-04-25 10:02 | 31.52436 | 74.40675 | 722 ft | 12 kts | 340° |
| 2026-04-25 10:02 | 31.52524 | 74.40672 | 722 ft | 14 kts | 1° |
| 2026-04-25 10:03 | 31.52626 | 74.40674 | 723 ft | 15 kts | 360° |
| 2026-04-25 10:03 | 31.52740 | 74.40674 | 722 ft | 17 kts | 0° |
| 2026-04-25 10:03 | 31.52860 | 74.40677 | 724 ft | 16 kts | 1° |
| 2026-04-25 10:03 | 31.52971 | 74.40680 | 723 ft | 17 kts | 1° |
| 2026-04-25 10:04 | 31.53090 | 74.40684 | 724 ft | 18 kts | 1° |
| 2026-04-25 10:04 | 31.53220 | 74.40687 | 723 ft | 19 kts | 360° |
| 2026-04-25 10:04 | 31.53355 | 74.40690 | 724 ft | 20 kts | 0° |
| 2026-04-25 10:04 | 31.53486 | 74.40691 | 723 ft | 19 kts | 0° |
| 2026-04-25 10:05 | 31.53595 | 74.40635 | 723 ft | 14 kts | 315° |
| 2026-04-25 10:05 | 31.53649 | 74.40540 | 724 ft | 15 kts | 267° |
| 2026-04-25 10:05 | 31.53575 | 74.40484 | 726 ft | 15 kts | 180° |
| 2026-04-25 10:05 | 31.53438 | 74.40482 | 723 ft | 38 kts | 181° |
| 2026-04-25 10:06 | 31.52921 | 74.40473 | 723 ft | 109 kts | 181° |
| 2026-04-25 10:06 | 31.51971 | 74.40446 | 734 ft | 161 kts | 186° |
| 2026-04-25 10:06 | 31.50813 | 74.40441 | 1228 ft | 171 kts | 182° |
| 2026-04-25 10:06 | 31.49626 | 74.40439 | 1879 ft | 170 kts | 179° |
| 2026-04-25 10:07 | 31.48444 | 74.40400 | 2568 ft | 171 kts | 182° |
| 2026-04-25 10:07 | 31.47294 | 74.39897 | 2841 ft | 193 kts | 225° |
| 2026-04-25 10:07 | 31.46749 | 74.38401 | 3085 ft | 217 kts | 270° |
| 2026-04-25 10:07 | 31.47054 | 74.36568 | 3334 ft | 243 kts | 286° |
| 2026-04-25 10:08 | 31.47571 | 74.34616 | 3686 ft | 266 kts | 287° |
| 2026-04-25 10:08 | 31.48163 | 74.32518 | 4374 ft | 274 kts | 288° |
| 2026-04-25 10:08 | 31.48760 | 74.30398 | 5272 ft | 274 kts | 289° |
| 2026-04-25 10:08 | 31.49342 | 74.28276 | 6230 ft | 274 kts | 288° |
| 2026-04-25 10:09 | 31.49909 | 74.26141 | 7093 ft | 275 kts | 288° |
| 2026-04-25 10:09 | 31.50469 | 74.24004 | 8005 ft | 274 kts | 288° |
| 2026-04-25 10:09 | 31.51027 | 74.21862 | 8935 ft | 274 kts | 289° |
| 2026-04-25 10:09 | 31.51826 | 74.19844 | 9836 ft | 274 kts | 303° |
| 2026-04-25 10:10 | 31.53070 | 74.18117 | 10301 ft | 294 kts | 317° |
| 2026-04-25 10:10 | 31.54865 | 74.16775 | 10536 ft | 321 kts | 334° |
| 2026-04-25 10:10 | 31.57096 | 74.16088 | 10904 ft | 341 kts | 346° |
| 2026-04-25 10:10 | 31.59452 | 74.15584 | 11549 ft | 347 kts | 345° |
| 2026-04-25 10:11 | 31.61836 | 74.15051 | 12247 ft | 351 kts | 345° |
| 2026-04-25 10:11 | 31.64259 | 74.14498 | 12888 ft | 358 kts | 345° |
| 2026-04-25 10:11 | 31.66721 | 74.13928 | 13566 ft | 363 kts | 344° |
| 2026-04-25 10:11 | 31.69209 | 74.13350 | 14196 ft | 367 kts | 344° |
| 2026-04-25 10:12 | 31.71724 | 74.12768 | 14837 ft | 370 kts | 344° |
| 2026-04-25 10:12 | 31.74225 | 74.12193 | 15471 ft | 373 kts | 344° |
| 2026-04-25 10:12 | 31.79359 | 74.11016 | 16744 ft | 379 kts | 345° |
| 2026-04-25 10:13 | 31.81955 | 74.10407 | 17385 ft | 381 kts | 342° |
| 2026-04-25 10:13 | 31.84454 | 74.09406 | 18002 ft | 379 kts | 331° |
| 2026-04-25 10:13 | 31.86735 | 74.07874 | 18548 ft | 378 kts | 321° |
| 2026-04-25 10:13 | 31.88810 | 74.05969 | 19098 ft | 380 kts | 318° |
| 2026-04-25 10:14 | 31.90888 | 74.04026 | 19634 ft | 383 kts | 318° |
| 2026-04-25 10:14 | 31.92991 | 74.02078 | 20192 ft | 387 kts | 320° |
| 2026-04-25 10:14 | 31.95279 | 74.00441 | 20730 ft | 394 kts | 330° |
| 2026-04-25 10:14 | 31.97756 | 73.99034 | 21281 ft | 396 kts | 330° |
| 2026-04-25 10:15 | 32.00244 | 73.97621 | 21847 ft | 398 kts | 330° |
| 2026-04-25 10:15 | 32.02742 | 73.96197 | 22362 ft | 400 kts | 330° |
| 2026-04-25 10:15 | 32.05258 | 73.94759 | 22869 ft | 403 kts | 330° |
| 2026-04-25 10:15 | 32.07789 | 73.93309 | 23353 ft | 406 kts | 330° |
| 2026-04-25 10:16 | 32.10336 | 73.91850 | 23752 ft | 409 kts | 330° |
| 2026-04-25 10:16 | 32.12901 | 73.90378 | 24148 ft | 411 kts | 330° |
| 2026-04-25 10:16 | 32.15485 | 73.88894 | 24517 ft | 414 kts | 330° |
| 2026-04-25 10:16 | 32.18081 | 73.87404 | 24903 ft | 416 kts | 330° |
| 2026-04-25 10:17 | 32.20659 | 73.85926 | 25272 ft | 419 kts | 330° |
| 2026-04-25 10:17 | 32.23288 | 73.84418 | 25652 ft | 421 kts | 330° |
| 2026-04-25 10:17 | 32.25927 | 73.82903 | 26018 ft | 423 kts | 330° |
| 2026-04-25 10:17 | 32.28579 | 73.81375 | 26384 ft | 425 kts | 330° |
| 2026-04-25 10:18 | 32.31245 | 73.79836 | 26738 ft | 427 kts | 330° |
| 2026-04-25 10:18 | 32.33923 | 73.78289 | 27089 ft | 430 kts | 330° |
| 2026-04-25 10:18 | 32.36616 | 73.76734 | 27444 ft | 432 kts | 330° |
| 2026-04-25 10:18 | 32.39323 | 73.75174 | 27775 ft | 434 kts | 330° |
| 2026-04-25 10:19 | 32.42006 | 73.73630 | 28097 ft | 436 kts | 330° |
| 2026-04-25 10:19 | 32.44738 | 73.72058 | 28403 ft | 438 kts | 330° |
| 2026-04-25 10:19 | 32.47482 | 73.70477 | 28708 ft | 440 kts | 330° |
| 2026-04-25 10:19 | 32.50235 | 73.68886 | 28999 ft | 441 kts | 329° |
| 2026-04-25 10:20 | 32.53000 | 73.67283 | 29280 ft | 443 kts | 329° |
| 2026-04-25 10:20 | 32.55775 | 73.65672 | 29547 ft | 445 kts | 329° |
| 2026-04-25 10:20 | 32.58555 | 73.64059 | 29801 ft | 446 kts | 330° |
| 2026-04-25 10:20 | 32.61342 | 73.62443 | 30100 ft | 445 kts | 329° |
| 2026-04-25 10:21 | 32.64124 | 73.60829 | 30401 ft | 444 kts | 329° |
| 2026-04-25 10:21 | 32.66859 | 73.59243 | 30694 ft | 443 kts | 329° |
| 2026-04-25 10:21 | 32.69628 | 73.57638 | 30984 ft | 443 kts | 329° |
| 2026-04-25 10:21 | 32.72393 | 73.56033 | 31272 ft | 442 kts | 329° |
| 2026-04-25 10:22 | 32.75153 | 73.54429 | 31561 ft | 441 kts | 329° |
| 2026-04-25 10:22 | 32.77911 | 73.52825 | 31851 ft | 441 kts | 329° |
| 2026-04-25 10:22 | 32.80663 | 73.51221 | 32153 ft | 440 kts | 329° |
| 2026-04-25 10:22 | 32.83410 | 73.49619 | 32460 ft | 440 kts | 329° |
| 2026-04-25 10:23 | 32.86118 | 73.48038 | 32755 ft | 439 kts | 329° |
| 2026-04-25 10:23 | 32.88857 | 73.46440 | 33053 ft | 438 kts | 329° |
| 2026-04-25 10:23 | 32.91597 | 73.44841 | 33358 ft | 438 kts | 329° |
| 2026-04-25 10:23 | 32.94326 | 73.43243 | 33655 ft | 437 kts | 329° |
| 2026-04-25 10:24 | 32.97055 | 73.41644 | 33938 ft | 437 kts | 329° |
| 2026-04-25 10:24 | 32.99780 | 73.40046 | 34204 ft | 436 kts | 329° |
| 2026-04-25 10:24 | 33.02500 | 73.38449 | 34465 ft | 436 kts | 329° |
| 2026-04-25 10:24 | 33.05218 | 73.36855 | 34725 ft | 435 kts | 329° |
| 2026-04-25 10:25 | 33.07897 | 73.35282 | 34972 ft | 435 kts | 329° |
| 2026-04-25 10:25 | 33.10592 | 73.33699 | 35294 ft | 432 kts | 328° |
| 2026-04-25 10:25 | 33.13292 | 73.32118 | 35593 ft | 430 kts | 328° |
| 2026-04-25 10:25 | 33.15107 | 73.31056 | 35762 ft | 430 kts | 328° |
| 2026-04-25 10:26 | 33.18661 | 73.28971 | 35884 ft | 429 kts | 328° |
| 2026-04-25 10:26 | 33.24008 | 73.25817 | 35890 ft | 428 kts | 328° |
| 2026-04-25 10:27 | 33.29348 | 73.22659 | 35905 ft | 428 kts | 328° |
| 2026-04-25 10:28 | 33.39774 | 73.16615 | 35911 ft | 431 kts | 334° |